Marland, Oklahoma
Current Conditions -  °F | °C
As of 12:53 PM on Saturday 20 Dec 2014 (Local Time) from KPNC Reporting Station
Overcast Overcast  
Wind Chill: 44°   Ceiling: 2700
Heat Index: 49°   Visibility: 10mi
Dew Point: 36°   Wind: 12mph
Humidity: 61%   Direction: 210°SSW
Pressure: 30.15"   Gusts: NA
Location:  36.56°N, 97.15°W
Report Text: KPNC 201853Z AUTO 21010KT 10SM OVC027 09/02 A3015 RMK AO2 SLP212 T00940022
Loading
Personal Weather Stations






























Interactive Weather Map New forecast layout! Learn more

10-Day Weather Forecast

Advertisements
Track Severe Weather on mobile